createdAt,value
2022-12-31T00:02:11.083Z,8.31
2022-12-31T00:04:37.620Z,8.24
2022-12-31T00:07:04.571Z,8.26
2022-12-31T00:09:30.996Z,8.26
2022-12-31T00:11:57.453Z,8.31
2022-12-31T00:14:23.903Z,8.34
2022-12-31T00:16:50.335Z,8.33
2022-12-31T00:19:16.824Z,8.34
2022-12-31T00:21:43.669Z,8.36
2022-12-31T00:24:11.260Z,8.39
2022-12-31T00:26:37.819Z,8.37
2022-12-31T00:29:05.305Z,8.40
2022-12-31T00:31:34.466Z,8.42
2022-12-31T00:34:01.599Z,8.43
2022-12-31T00:36:31.128Z,8.47
2022-12-31T00:38:59.802Z,8.52
2022-12-31T00:41:27.504Z,8.51
2022-12-31T00:43:54.602Z,8.55
2022-12-31T00:46:21.483Z,8.52
2022-12-31T00:48:48.364Z,8.57
2022-12-31T00:51:16.890Z,8.62
2022-12-31T00:53:43.373Z,8.63
2022-12-31T00:56:20.609Z,8.62
2022-12-31T00:58:47.659Z,8.62
2022-12-31T01:01:18.929Z,8.70
2022-12-31T01:03:46.964Z,8.71
2022-12-31T01:06:13.412Z,8.69
2022-12-31T01:08:40.265Z,8.74
2022-12-31T01:11:28.980Z,8.75
2022-12-31T01:14:02.786Z,8.76
2022-12-31T01:16:34.019Z,8.76
2022-12-31T01:19:03.826Z,8.73
2022-12-31T01:21:30.957Z,8.80
2022-12-31T01:23:58.572Z,8.75
2022-12-31T01:26:25.619Z,8.75
2022-12-31T01:28:52.046Z,8.75
2022-12-31T01:31:20.537Z,8.80
2022-12-31T01:33:47.452Z,8.82
2022-12-31T01:36:20.396Z,8.81
2022-12-31T01:38:52.060Z,8.83
2022-12-31T01:41:24.955Z,8.83
2022-12-31T01:43:57.390Z,8.86
2022-12-31T01:46:32.634Z,8.81
2022-12-31T01:49:25.228Z,8.90
2022-12-31T01:51:58.354Z,8.96
2022-12-31T01:54:27.223Z,8.94
2022-12-31T01:56:55.138Z,8.91
2022-12-31T01:59:24.550Z,8.90
2022-12-31T02:01:54.483Z,8.98
2022-12-31T02:04:23.978Z,9.00
2022-12-31T02:06:56.205Z,9.03
2022-12-31T02:09:22.682Z,8.96
2022-12-31T02:11:49.054Z,8.98
2022-12-31T02:14:22.836Z,8.96
2022-12-31T02:16:55.228Z,9.02
2022-12-31T02:19:42.510Z,8.98
2022-12-31T02:22:39.644Z,9.00
2022-12-31T02:25:33.334Z,9.01
2022-12-31T02:28:11.535Z,9.02
2022-12-31T02:30:42.156Z,8.96
2022-12-31T02:33:20.128Z,8.99
2022-12-31T02:35:55.653Z,9.00
2022-12-31T02:38:35.727Z,8.99
2022-12-31T02:41:02.217Z,9.01
2022-12-31T02:43:28.892Z,9.04
2022-12-31T02:46:49.173Z,9.05
2022-12-31T02:49:40.493Z,9.09
2022-12-31T02:52:20.256Z,9.15
2022-12-31T02:54:56.889Z,9.15
2022-12-31T02:57:35.422Z,9.18
2022-12-31T03:00:24.518Z,9.16
2022-12-31T03:02:53.233Z,9.12
2022-12-31T03:05:24.200Z,9.18
2022-12-31T03:07:51.018Z,9.23
2022-12-31T03:10:17.555Z,9.25
2022-12-31T03:12:47.562Z,9.22
2022-12-31T03:15:20.507Z,9.20
2022-12-31T03:18:04.776Z,9.26
2022-12-31T03:20:56.103Z,9.25
2022-12-31T03:23:50.074Z,9.24
2022-12-31T03:26:16.504Z,9.27
2022-12-31T03:28:47.611Z,9.27
2022-12-31T03:31:14.303Z,9.29
2022-12-31T03:33:42.078Z,9.28
2022-12-31T03:36:11.710Z,9.37
2022-12-31T03:38:38.171Z,9.35
2022-12-31T03:41:05.091Z,9.40
2022-12-31T03:43:31.466Z,9.43
2022-12-31T03:46:01.492Z,9.46
2022-12-31T03:48:28.098Z,9.49
2022-12-31T03:50:54.725Z,9.50
2022-12-31T03:53:21.431Z,9.52
2022-12-31T03:55:55.148Z,9.56
2022-12-31T03:58:22.007Z,9.64
2022-12-31T04:00:49.241Z,9.64
2022-12-31T04:03:15.829Z,9.60
2022-12-31T04:05:42.345Z,9.65
2022-12-31T04:08:08.750Z,9.61
2022-12-31T04:10:35.178Z,9.66
2022-12-31T04:13:04.392Z,9.67
2022-12-31T04:15:30.869Z,9.63
2022-12-31T04:17:57.284Z,9.59
2022-12-31T04:20:23.670Z,9.61
2022-12-31T04:22:50.052Z,9.59
2022-12-31T04:25:16.478Z,9.59
2022-12-31T04:27:46.189Z,9.56
2022-12-31T04:30:13.483Z,9.57
2022-12-31T04:32:40.310Z,9.58
2022-12-31T04:35:07.583Z,9.55
2022-12-31T04:37:33.973Z,9.55
2022-12-31T04:40:05.546Z,9.52
2022-12-31T04:42:32.983Z,9.58
2022-12-31T04:44:59.364Z,9.56
2022-12-31T04:47:25.821Z,9.57
2022-12-31T04:49:52.187Z,9.57
2022-12-31T04:52:18.603Z,9.59
2022-12-31T04:54:45.135Z,9.58
2022-12-31T04:57:11.546Z,9.59
2022-12-31T04:59:37.922Z,9.64
2022-12-31T05:02:04.590Z,9.67
2022-12-31T05:04:31.412Z,9.66
2022-12-31T05:06:57.806Z,9.70
2022-12-31T05:09:27.414Z,9.70
2022-12-31T05:11:54.025Z,9.74
2022-12-31T05:14:20.496Z,9.74
2022-12-31T05:16:47.002Z,9.75
2022-12-31T05:19:13.459Z,9.73
2022-12-31T05:21:39.956Z,9.74
2022-12-31T05:24:06.803Z,9.72
2022-12-31T05:26:33.210Z,9.78
2022-12-31T05:29:00.499Z,9.82
2022-12-31T05:31:27.212Z,9.84
2022-12-31T05:33:53.660Z,9.84
2022-12-31T05:36:20.043Z,9.84
2022-12-31T05:38:46.451Z,9.86
2022-12-31T05:41:12.852Z,9.88
2022-12-31T05:43:39.284Z,9.85
2022-12-31T05:46:06.156Z,9.86
2022-12-31T05:48:32.732Z,9.86
2022-12-31T05:50:59.290Z,9.86
2022-12-31T05:53:25.762Z,9.86
2022-12-31T05:55:52.198Z,9.84
2022-12-31T05:58:18.698Z,9.91
2022-12-31T06:00:46.021Z,9.87
2022-12-31T06:03:12.964Z,9.88
2022-12-31T06:05:41.553Z,9.87
2022-12-31T06:08:08.077Z,9.89
2022-12-31T06:10:34.459Z,9.90
2022-12-31T06:13:01.327Z,9.90
2022-12-31T06:15:27.769Z,9.91
2022-12-31T06:17:54.151Z,9.90
2022-12-31T06:20:20.539Z,9.97
2022-12-31T06:22:46.931Z,9.93
2022-12-31T06:25:13.404Z,9.94
2022-12-31T06:27:39.800Z,10.02
2022-12-31T06:30:07.246Z,10.00
2022-12-31T06:32:34.858Z,10.02
2022-12-31T06:35:01.269Z,10.04
2022-12-31T06:37:27.710Z,10.09
2022-12-31T06:39:54.107Z,10.08
2022-12-31T06:42:20.536Z,10.06
2022-12-31T06:44:46.953Z,10.10
2022-12-31T06:47:13.359Z,10.13
2022-12-31T06:49:40.763Z,10.16
2022-12-31T06:52:07.255Z,10.27
2022-12-31T06:54:33.906Z,10.24
2022-12-31T06:57:00.446Z,10.28
2022-12-31T06:59:28.830Z,10.33
2022-12-31T07:02:15.683Z,10.33
2022-12-31T07:05:06.868Z,10.36
2022-12-31T07:07:48.146Z,10.45
2022-12-31T07:10:29.399Z,10.44
2022-12-31T07:13:08.399Z,10.46
2022-12-31T07:15:48.519Z,10.50
2022-12-31T07:18:24.130Z,10.46
2022-12-31T07:20:50.935Z,10.43
2022-12-31T07:23:17.894Z,10.46
2022-12-31T07:25:54.065Z,10.44
2022-12-31T07:28:36.687Z,10.50
2022-12-31T07:31:11.768Z,10.49
2022-12-31T07:33:58.940Z,10.47
2022-12-31T07:36:57.195Z,10.48
2022-12-31T07:39:38.993Z,10.41
2022-12-31T07:42:16.348Z,10.41
2022-12-31T07:45:00.924Z,10.37
2022-12-31T07:47:28.246Z,10.38
2022-12-31T07:49:55.818Z,10.41
2022-12-31T07:52:22.788Z,10.37
2022-12-31T07:54:49.476Z,10.33
2022-12-31T07:57:18.798Z,10.31
2022-12-31T08:00:06.935Z,10.27
2022-12-31T08:02:58.944Z,10.22
2022-12-31T08:05:29.746Z,10.18
2022-12-31T08:08:36.380Z,10.16
2022-12-31T08:11:08.971Z,10.10
2022-12-31T08:13:35.857Z,10.09
2022-12-31T08:16:02.803Z,10.08
2022-12-31T08:18:29.628Z,10.06
2022-12-31T08:21:04.915Z,10.05
2022-12-31T08:23:56.345Z,10.04
2022-12-31T08:27:04.271Z,10.04
2022-12-31T08:29:40.619Z,10.05
2022-12-31T08:32:22.715Z,10.06
2022-12-31T08:35:06.359Z,10.04
2022-12-31T08:38:02.487Z,10.04
2022-12-31T08:40:47.853Z,10.03
2022-12-31T08:43:24.675Z,10.01
2022-12-31T08:45:53.404Z,10.05
2022-12-31T08:48:26.755Z,10.05
2022-12-31T08:50:54.380Z,10.07
2022-12-31T08:53:21.201Z,10.09
2022-12-31T08:55:52.660Z,10.09
2022-12-31T08:58:24.917Z,10.10
2022-12-31T09:00:57.631Z,10.11
2022-12-31T09:03:33.401Z,10.20
2022-12-31T09:06:09.883Z,10.20
2022-12-31T09:08:39.301Z,10.25
2022-12-31T09:11:30.430Z,10.25
2022-12-31T09:14:35.618Z,10.33
2022-12-31T09:17:25.270Z,10.35
2022-12-31T09:19:52.194Z,10.36
2022-12-31T09:22:19.044Z,10.40
2022-12-31T09:24:45.654Z,10.38
2022-12-31T09:27:36.341Z,10.41
2022-12-31T09:30:11.240Z,10.43
2022-12-31T09:32:47.932Z,10.46
2022-12-31T09:35:46.671Z,10.49
2022-12-31T09:38:22.650Z,10.49
2022-12-31T09:41:14.963Z,10.51
2022-12-31T09:44:10.000Z,10.53
2022-12-31T09:47:14.024Z,10.53
2022-12-31T09:49:40.417Z,10.55
2022-12-31T09:52:37.135Z,10.55
2022-12-31T09:55:37.977Z,10.57
2022-12-31T09:58:16.688Z,10.58
2022-12-31T10:00:56.258Z,10.53
2022-12-31T10:03:40.039Z,10.54
2022-12-31T10:06:21.750Z,10.52
2022-12-31T10:08:56.697Z,10.51
2022-12-31T10:11:38.251Z,10.50
2022-12-31T10:14:07.577Z,10.50
2022-12-31T10:16:57.993Z,10.52
2022-12-31T10:19:51.599Z,10.52
2022-12-31T10:22:31.943Z,10.51
2022-12-31T10:25:38.401Z,10.50
2022-12-31T10:28:29.575Z,10.48
2022-12-31T10:31:05.962Z,10.49
2022-12-31T10:33:45.645Z,10.48
2022-12-31T10:36:19.828Z,10.50
2022-12-31T10:38:58.474Z,10.50
2022-12-31T10:41:40.112Z,10.52
2022-12-31T10:44:34.299Z,10.50
2022-12-31T10:47:51.263Z,10.53
2022-12-31T10:50:39.300Z,10.61
2022-12-31T10:53:40.065Z,10.59
2022-12-31T10:56:28.070Z,10.62
2022-12-31T10:59:00.421Z,10.62
2022-12-31T11:01:49.761Z,10.65
2022-12-31T11:04:45.378Z,10.63
2022-12-31T11:07:27.407Z,10.68
2022-12-31T11:10:21.246Z,10.71
2022-12-31T11:12:59.953Z,10.72
2022-12-31T11:15:55.908Z,10.73
2022-12-31T11:18:36.212Z,10.77
2022-12-31T11:21:24.588Z,10.74
2022-12-31T11:24:05.978Z,10.75
2022-12-31T11:27:06.386Z,10.75
2022-12-31T11:30:03.728Z,10.78
2022-12-31T11:32:45.104Z,10.74
2022-12-31T11:35:31.729Z,10.73
2022-12-31T11:38:07.083Z,10.74
2022-12-31T11:40:33.570Z,10.76
2022-12-31T11:43:36.066Z,10.74
2022-12-31T11:46:39.583Z,10.77
2022-12-31T11:50:10.587Z,10.76
2022-12-31T11:52:51.969Z,10.77
2022-12-31T11:55:21.242Z,10.79
2022-12-31T11:57:52.098Z,10.81
2022-12-31T12:00:24.617Z,10.81
2022-12-31T12:02:55.297Z,10.85
2022-12-31T12:05:23.927Z,10.84
2022-12-31T12:07:51.991Z,10.84
2022-12-31T12:10:29.104Z,10.86
2022-12-31T12:13:00.187Z,10.87
2022-12-31T12:15:31.355Z,10.89
2022-12-31T12:18:01.554Z,10.92
2022-12-31T12:20:31.948Z,10.88
2022-12-31T12:23:01.966Z,10.87
2022-12-31T12:25:39.300Z,10.93
2022-12-31T12:28:44.359Z,10.97
2022-12-31T12:31:20.087Z,10.96
2022-12-31T12:33:47.862Z,10.94
2022-12-31T12:36:16.908Z,10.98
2022-12-31T12:38:44.002Z,10.98
2022-12-31T12:41:18.324Z,10.97
2022-12-31T12:43:45.203Z,10.97
2022-12-31T12:46:27.668Z,11.03
2022-12-31T12:48:56.782Z,11.11
2022-12-31T12:54:29.593Z,11.05
2022-12-31T12:57:24.007Z,11.12
2022-12-31T13:00:01.794Z,11.13
2022-12-31T13:02:36.616Z,11.06
2022-12-31T13:05:28.952Z,11.12
2022-12-31T13:08:37.590Z,11.07
2022-12-31T13:11:29.043Z,11.18
2022-12-31T13:14:17.201Z,11.25
2022-12-31T13:16:48.252Z,11.27
2022-12-31T13:19:37.756Z,11.22
2022-12-31T13:22:44.619Z,11.17
2022-12-31T13:25:29.720Z,11.33
2022-12-31T13:28:00.155Z,11.34
2022-12-31T13:30:30.557Z,11.35
2022-12-31T13:33:18.207Z,11.47
2022-12-31T13:35:48.741Z,11.40
2022-12-31T13:38:22.698Z,11.39
2022-12-31T13:41:04.830Z,11.38
2022-12-31T13:43:34.236Z,11.42
2022-12-31T13:46:10.644Z,11.43
2022-12-31T13:48:44.769Z,11.42
2022-12-31T13:51:20.358Z,11.43
2022-12-31T13:54:13.548Z,11.41
2022-12-31T13:56:42.599Z,11.38
2022-12-31T13:59:29.688Z,11.35
2022-12-31T14:02:03.134Z,11.37
2022-12-31T14:04:53.227Z,11.34
2022-12-31T14:07:22.020Z,11.31
2022-12-31T14:09:49.050Z,11.32
2022-12-31T14:12:52.941Z,11.36
2022-12-31T14:15:34.452Z,11.36
2022-12-31T14:18:21.868Z,11.39
2022-12-31T14:20:58.326Z,11.40
2022-12-31T14:23:27.666Z,11.41
2022-12-31T14:26:00.885Z,11.35
2022-12-31T14:29:12.021Z,11.31
2022-12-31T14:31:53.654Z,11.30
2022-12-31T14:34:47.487Z,11.35
2022-12-31T14:37:23.879Z,11.34
2022-12-31T14:40:28.871Z,11.32
2022-12-31T14:43:07.483Z,11.35
2022-12-31T14:45:52.096Z,11.37
2022-12-31T14:48:36.851Z,11.30
2022-12-31T14:51:05.100Z,11.33
2022-12-31T14:53:31.704Z,11.29
2022-12-31T14:56:27.721Z,11.27
2022-12-31T14:58:59.702Z,11.30
2022-12-31T15:01:26.398Z,11.29
2022-12-31T15:03:57.279Z,11.31
2022-12-31T15:06:23.779Z,11.35
2022-12-31T15:09:15.369Z,11.37
2022-12-31T15:12:21.974Z,11.38
2022-12-31T15:14:54.604Z,11.41
2022-12-31T15:17:29.030Z,11.46
2022-12-31T15:20:17.872Z,11.54
2022-12-31T15:22:52.131Z,11.54
2022-12-31T15:25:32.605Z,11.57
2022-12-31T15:28:05.357Z,11.56
2022-12-31T15:30:36.581Z,11.57
2022-12-31T15:33:07.787Z,11.59
2022-12-31T15:35:52.957Z,11.64
2022-12-31T15:38:32.983Z,11.64
2022-12-31T15:41:00.378Z,11.63
2022-12-31T15:43:29.834Z,11.69
2022-12-31T15:45:57.652Z,11.70
2022-12-31T15:48:36.189Z,11.66
2022-12-31T15:51:04.680Z,11.70
2022-12-31T15:53:53.663Z,11.74
2022-12-31T15:56:31.242Z,11.77
2022-12-31T15:59:01.539Z,11.76
2022-12-31T16:01:35.137Z,11.80
2022-12-31T16:04:12.560Z,11.82
2022-12-31T16:06:39.185Z,11.84
2022-12-31T16:09:18.516Z,11.83
2022-12-31T16:11:45.408Z,11.95
2022-12-31T16:14:22.193Z,11.93
2022-12-31T16:17:00.394Z,11.97
2022-12-31T16:19:42.430Z,11.96
2022-12-31T16:22:25.253Z,11.98
2022-12-31T16:25:38.864Z,12.03
2022-12-31T16:27:43.287Z,12.07
2022-12-31T16:30:21.209Z,12.20
2022-12-31T16:32:49.505Z,12.20
2022-12-31T16:35:29.862Z,12.29
2022-12-31T16:38:17.576Z,12.31
2022-12-31T16:41:03.604Z,12.31
2022-12-31T16:43:36.547Z,12.29
2022-12-31T16:46:25.507Z,12.32
2022-12-31T16:48:55.938Z,12.29
2022-12-31T16:51:25.954Z,12.32
2022-12-31T16:53:53.555Z,12.33
2022-12-31T16:56:26.340Z,12.30
2022-12-31T16:59:01.346Z,12.35
2022-12-31T17:01:32.175Z,12.35
2022-12-31T17:04:03.701Z,12.33
2022-12-31T17:06:33.336Z,12.36
2022-12-31T17:09:20.939Z,12.35
2022-12-31T17:11:52.490Z,12.36
2022-12-31T17:14:23.118Z,12.32
2022-12-31T17:17:03.170Z,12.31
2022-12-31T17:19:45.853Z,12.33
2022-12-31T17:22:32.849Z,12.31
2022-12-31T17:25:27.053Z,12.33
2022-12-31T17:28:02.163Z,12.33
2022-12-31T17:30:32.590Z,12.31
2022-12-31T17:33:27.063Z,12.38
2022-12-31T17:36:13.545Z,12.45
2022-12-31T17:38:40.032Z,12.36
2022-12-31T17:41:06.392Z,12.39
2022-12-31T17:43:37.977Z,12.41
2022-12-31T17:46:15.936Z,12.39
2022-12-31T17:48:45.019Z,12.40
2022-12-31T17:51:12.088Z,12.39
2022-12-31T17:53:38.497Z,12.38
2022-12-31T17:56:07.466Z,12.40
2022-12-31T17:58:44.784Z,12.44
2022-12-31T18:01:15.540Z,12.42
2022-12-31T18:03:42.020Z,12.44
2022-12-31T18:06:16.625Z,12.42
2022-12-31T18:08:43.595Z,12.40
2022-12-31T18:11:22.772Z,12.45
2022-12-31T18:13:49.534Z,12.44
2022-12-31T18:16:16.331Z,12.49
2022-12-31T18:18:43.674Z,12.51
2022-12-31T18:21:17.898Z,12.54
2022-12-31T18:23:46.490Z,12.52
2022-12-31T18:26:18.373Z,12.56
2022-12-31T18:28:45.545Z,12.58
2022-12-31T18:31:19.095Z,12.54
2022-12-31T18:33:47.019Z,12.58
2022-12-31T18:36:15.616Z,12.55
2022-12-31T18:38:42.492Z,12.56
2022-12-31T18:41:17.537Z,12.63
2022-12-31T18:43:44.224Z,12.64
2022-12-31T18:46:13.390Z,12.65
2022-12-31T18:48:41.410Z,12.69
2022-12-31T18:51:16.840Z,12.68
2022-12-31T18:53:43.492Z,12.63
2022-12-31T18:56:12.843Z,12.69
2022-12-31T18:58:39.523Z,12.65
2022-12-31T19:01:14.966Z,12.62
2022-12-31T19:03:41.509Z,12.56
2022-12-31T19:06:08.861Z,12.61
2022-12-31T19:08:35.260Z,12.58
2022-12-31T19:11:01.672Z,12.64
2022-12-31T19:13:28.051Z,12.61
2022-12-31T19:15:55.456Z,12.64
2022-12-31T19:18:21.846Z,12.64
2022-12-31T19:20:48.323Z,12.59
2022-12-31T19:23:20.591Z,12.56
2022-12-31T19:25:48.910Z,12.58
2022-12-31T19:28:21.404Z,12.59
2022-12-31T19:30:48.405Z,12.60
2022-12-31T19:33:15.914Z,12.59
2022-12-31T19:35:42.744Z,12.52
2022-12-31T19:38:18.773Z,12.48
2022-12-31T19:40:46.470Z,12.51
2022-12-31T19:43:14.507Z,12.46
2022-12-31T19:45:42.590Z,12.48
2022-12-31T19:48:14.331Z,12.45
2022-12-31T19:50:52.222Z,12.46
2022-12-31T19:53:22.238Z,12.46
2022-12-31T19:55:49.345Z,12.45
2022-12-31T19:58:21.444Z,12.44
2022-12-31T20:00:55.696Z,12.47
2022-12-31T20:03:23.756Z,12.58
2022-12-31T20:05:50.234Z,12.56
2022-12-31T20:08:17.016Z,12.52
2022-12-31T20:10:43.926Z,12.51
2022-12-31T20:13:10.626Z,12.57
2022-12-31T20:15:41.284Z,12.54
2022-12-31T20:18:07.699Z,12.52
2022-12-31T20:20:34.191Z,12.54
2022-12-31T20:23:00.638Z,12.59
2022-12-31T20:25:27.077Z,12.57
2022-12-31T20:27:54.947Z,12.57
2022-12-31T20:30:22.951Z,12.52
2022-12-31T20:32:52.019Z,12.50
2022-12-31T20:35:19.430Z,12.47
2022-12-31T20:37:46.135Z,12.47
2022-12-31T20:40:14.248Z,12.44
2022-12-31T20:42:41.266Z,12.49
2022-12-31T20:45:09.408Z,12.50
2022-12-31T20:47:36.010Z,12.45
2022-12-31T20:50:11.976Z,12.44
2022-12-31T20:52:38.789Z,12.49
2022-12-31T20:55:05.743Z,12.48
2022-12-31T20:57:33.984Z,12.49
2022-12-31T21:00:00.987Z,12.45
2022-12-31T21:02:40.792Z,12.47
2022-12-31T21:05:09.363Z,12.41
2022-12-31T21:07:35.868Z,12.44
2022-12-31T21:10:02.258Z,12.48
2022-12-31T21:12:43.792Z,12.48
2022-12-31T21:15:12.267Z,12.46
2022-12-31T21:17:38.700Z,12.48
2022-12-31T21:20:05.691Z,12.45
2022-12-31T21:22:33.659Z,12.45
2022-12-31T21:25:04.059Z,12.43
2022-12-31T21:27:30.730Z,12.45
2022-12-31T21:32:43.615Z,12.41
2022-12-31T21:38:04.433Z,12.48
2022-12-31T21:40:32.007Z,12.46
2022-12-31T21:42:58.759Z,12.41
2022-12-31T21:45:25.526Z,12.43
2022-12-31T21:48:10.588Z,12.43
2022-12-31T21:50:37.023Z,12.40
2022-12-31T21:53:03.482Z,12.41
2022-12-31T21:55:48.342Z,12.44
2022-12-31T21:58:25.866Z,12.37
2022-12-31T22:01:12.577Z,12.33
2022-12-31T22:03:39.222Z,12.37
2022-12-31T22:06:12.331Z,12.38
2022-12-31T22:08:40.642Z,12.41
2022-12-31T22:11:07.453Z,12.39
2022-12-31T22:13:34.476Z,12.35
2022-12-31T22:16:05.123Z,12.33
2022-12-31T22:18:34.912Z,12.40
2022-12-31T22:21:05.509Z,12.36
2022-12-31T22:23:33.480Z,12.41
2022-12-31T22:26:00.556Z,12.32
2022-12-31T22:28:38.097Z,12.37
2022-12-31T22:31:05.906Z,12.37
2022-12-31T22:33:32.375Z,12.39
2022-12-31T22:36:04.130Z,12.36
2022-12-31T22:38:31.039Z,12.41
2022-12-31T22:41:14.041Z,12.36
2022-12-31T22:43:42.822Z,12.36
2022-12-31T22:46:11.753Z,12.32
2022-12-31T22:48:38.570Z,12.32
2022-12-31T22:51:05.867Z,12.32
2022-12-31T22:53:32.712Z,12.31
2022-12-31T22:55:59.454Z,12.36
2022-12-31T22:58:26.010Z,12.30
2022-12-31T23:00:52.791Z,12.37
2022-12-31T23:03:19.429Z,12.35
2022-12-31T23:05:49.724Z,12.36
2022-12-31T23:08:22.724Z,12.36
2022-12-31T23:11:01.306Z,12.36
2022-12-31T23:13:50.979Z,12.34
2022-12-31T23:16:37.597Z,12.32
2022-12-31T23:19:23.626Z,12.37
2022-12-31T23:22:08.436Z,12.33
2022-12-31T23:24:35.034Z,12.33
2022-12-31T23:27:01.515Z,12.33
2022-12-31T23:29:27.997Z,12.32
2022-12-31T23:31:54.483Z,12.35
2022-12-31T23:34:21.273Z,12.33
2022-12-31T23:36:47.913Z,12.38
2022-12-31T23:39:14.477Z,12.40
2022-12-31T23:41:40.909Z,12.43
2022-12-31T23:44:07.418Z,12.41
2022-12-31T23:46:33.867Z,12.41
2022-12-31T23:49:00.404Z,12.38
2022-12-31T23:51:26.903Z,12.42
2022-12-31T23:53:53.578Z,12.41
2022-12-31T23:56:23.557Z,12.48
2022-12-31T23:58:56.686Z,12.48
